Bucksport, South Carolina
Current Conditions -  °F | °C
As of 7:35 PM on Monday 24 Nov 2014 (Local Time) from KHYW Reporting Station
Moderate Rain Moderate Rain  
Wind Chill: 66°   Ceiling: 8500
Heat Index: 66°   Visibility: 10mi
Dew Point: 66°   Wind: 7mph
Humidity: 100%   Direction: 190°S
Pressure: 29.94"   Gusts: NA
Location:  33.736°N, 79.1183°W
Report Text: KHYW 250035Z AUTO 19006KT 10SM RA SCT036 SCT050 BKN085 19/19 A2994 RMK AO2 LTG DSNT N P0001
Loading
Personal Weather Stations






























Interactive Weather Map New forecast layout! Learn more

10-Day Weather Forecast

Advertisements
Track Severe Weather on mobile